LZB441 LBPD-LGSM
Flight info
| Callsign | LZB441 |
|---|---|
| Flight time | 0h 52m |
| Altitude | 37000 |
| Route | ROVDO DCT IDILO DCT URNIL |
| Aircraft | A319/M-SDE3FGHIRWY/LB1 |
Departure
| Time | 2026-05-09 08:00 |
|---|---|
| Airport | Plovdiv International Airport (LBPD) |
Arrival
| Time | 2026-05-09 08:52 |
|---|---|
| Airport | Samos Airport (LGSM) |
| Time | Latitude | Longitude | Altitude | Speed | Heading |
|---|---|---|---|---|---|
| 2026-05-09 07:28 | 42.07640 | 24.84310 | 581 ft | 0 kts | 37° |
| 2026-05-09 07:50 | 42.07634 | 24.84303 | 581 ft | 4 kts | 38° |
| 2026-05-09 07:50 | 42.07614 | 24.84280 | 581 ft | 4 kts | 46° |
| 2026-05-09 07:51 | 42.07597 | 24.84252 | 581 ft | 4 kts | 61° |
| 2026-05-09 07:51 | 42.07589 | 24.84220 | 581 ft | 4 kts | 103° |
| 2026-05-09 07:51 | 42.07592 | 24.84208 | 581 ft | 0 kts | 127° |
| 2026-05-09 07:54 | 42.07591 | 24.84208 | 581 ft | 1 kts | 127° |
| 2026-05-09 07:54 | 42.07581 | 24.84227 | 581 ft | 4 kts | 127° |
| 2026-05-09 07:55 | 42.07558 | 24.84267 | 581 ft | 7 kts | 127° |
| 2026-05-09 07:55 | 42.07526 | 24.84325 | 581 ft | 9 kts | 127° |
| 2026-05-09 07:55 | 42.07483 | 24.84400 | 581 ft | 11 kts | 127° |
| 2026-05-09 07:55 | 42.07432 | 24.84490 | 581 ft | 13 kts | 127° |
| 2026-05-09 07:56 | 42.07369 | 24.84592 | 581 ft | 15 kts | 139° |
| 2026-05-09 07:56 | 42.07264 | 24.84637 | 581 ft | 17 kts | 161° |
| 2026-05-09 07:56 | 42.07182 | 24.84759 | 581 ft | 19 kts | 127° |
| 2026-05-09 07:56 | 42.07099 | 24.84907 | 581 ft | 21 kts | 127° |
| 2026-05-09 07:57 | 42.07007 | 24.85068 | 581 ft | 23 kts | 128° |
| 2026-05-09 07:57 | 42.06906 | 24.85244 | 581 ft | 25 kts | 127° |
| 2026-05-09 07:57 | 42.06799 | 24.85435 | 581 ft | 27 kts | 127° |
| 2026-05-09 07:57 | 42.06684 | 24.85639 | 581 ft | 28 kts | 127° |
| 2026-05-09 07:58 | 42.06560 | 24.85858 | 581 ft | 30 kts | 127° |
| 2026-05-09 07:58 | 42.06427 | 24.86091 | 581 ft | 32 kts | 127° |
| 2026-05-09 07:58 | 42.06328 | 24.86262 | 581 ft | 17 kts | 135° |
| 2026-05-09 07:58 | 42.06234 | 24.86301 | 580 ft | 11 kts | 176° |
| 2026-05-09 07:59 | 42.06161 | 24.86293 | 579 ft | 11 kts | 213° |
| 2026-05-09 07:59 | 42.06141 | 24.86249 | 579 ft | 5 kts | 248° |
| 2026-05-09 07:59 | 42.06155 | 24.86199 | 581 ft | 12 kts | 307° |
| 2026-05-09 07:59 | 42.06328 | 24.85892 | 580 ft | 70 kts | 307° |
| 2026-05-09 08:00 | 42.06741 | 24.85163 | 581 ft | 125 kts | 307° |
| 2026-05-09 08:00 | 42.07365 | 24.84084 | 763 ft | 155 kts | 309° |
| 2026-05-09 08:00 | 42.08031 | 24.82943 | 1392 ft | 155 kts | 307° |
| 2026-05-09 08:00 | 42.08683 | 24.81786 | 1978 ft | 159 kts | 306° |
| 2026-05-09 08:01 | 42.09391 | 24.80520 | 2294 ft | 180 kts | 306° |
| 2026-05-09 08:01 | 42.10171 | 24.79143 | 2781 ft | 190 kts | 308° |
| 2026-05-09 08:01 | 42.11336 | 24.78138 | 3081 ft | 218 kts | 348° |
| 2026-05-09 08:01 | 42.12885 | 24.78507 | 3555 ft | 243 kts | 29° |
| 2026-05-09 08:02 | 42.14186 | 24.80121 | 4105 ft | 267 kts | 56° |
| 2026-05-09 08:02 | 42.14692 | 24.81652 | 4645 ft | 275 kts | 76° |
| 2026-05-09 08:02 | 42.14647 | 24.84225 | 5547 ft | 281 kts | 106° |
| 2026-05-09 08:02 | 42.14021 | 24.86744 | 6540 ft | 286 kts | 109° |
| 2026-05-09 08:03 | 42.13366 | 24.89338 | 7565 ft | 291 kts | 109° |
| 2026-05-09 08:03 | 42.12711 | 24.91948 | 8617 ft | 297 kts | 109° |
| 2026-05-09 08:03 | 42.12041 | 24.94612 | 9637 ft | 303 kts | 109° |
| 2026-05-09 08:03 | 42.11357 | 24.97341 | 10474 ft | 316 kts | 109° |
| 2026-05-09 08:04 | 42.10627 | 25.00260 | 10910 ft | 341 kts | 109° |
| 2026-05-09 08:04 | 42.09852 | 25.03361 | 11437 ft | 355 kts | 109° |
| 2026-05-09 08:04 | 42.09057 | 25.06542 | 12162 ft | 361 kts | 109° |
| 2026-05-09 08:04 | 42.08972 | 25.06880 | 12230 ft | 361 kts | 109° |
| 2026-05-09 08:05 | 42.08166 | 25.10099 | 12962 ft | 365 kts | 109° |
| 2026-05-09 08:05 | 42.07348 | 25.13355 | 13676 ft | 369 kts | 109° |
| 2026-05-09 08:05 | 42.06523 | 25.16644 | 14322 ft | 373 kts | 109° |
| 2026-05-09 08:05 | 42.05687 | 25.19968 | 14943 ft | 377 kts | 109° |
| 2026-05-09 08:06 | 42.04840 | 25.23324 | 15565 ft | 381 kts | 109° |
| 2026-05-09 08:06 | 42.03977 | 25.26726 | 16186 ft | 385 kts | 109° |
| 2026-05-09 08:06 | 42.03105 | 25.30147 | 16805 ft | 389 kts | 110° |
| 2026-05-09 08:06 | 42.02222 | 25.33612 | 17426 ft | 393 kts | 110° |
| 2026-05-09 08:07 | 42.01093 | 25.36970 | 18033 ft | 396 kts | 123° |
| 2026-05-09 08:07 | 41.99385 | 25.39867 | 18607 ft | 397 kts | 138° |
| 2026-05-09 08:07 | 41.97184 | 25.42085 | 19158 ft | 396 kts | 153° |
| 2026-05-09 08:07 | 41.94645 | 25.43488 | 19713 ft | 395 kts | 167° |
| 2026-05-09 08:08 | 41.91935 | 25.44011 | 20275 ft | 394 kts | 181° |
| 2026-05-09 08:08 | 41.89194 | 25.44005 | 20840 ft | 396 kts | 182° |
| 2026-05-09 08:08 | 41.86422 | 25.43992 | 21392 ft | 399 kts | 182° |
| 2026-05-09 08:08 | 41.83641 | 25.43984 | 21936 ft | 402 kts | 182° |
| 2026-05-09 08:09 | 41.80832 | 25.43981 | 22462 ft | 405 kts | 182° |
| 2026-05-09 08:09 | 41.78002 | 25.43981 | 22978 ft | 408 kts | 182° |
| 2026-05-09 08:09 | 41.75152 | 25.43980 | 23485 ft | 411 kts | 182° |
| 2026-05-09 08:09 | 41.72250 | 25.43977 | 23918 ft | 414 kts | 182° |
| 2026-05-09 08:10 | 41.69359 | 25.43976 | 24320 ft | 417 kts | 183° |
| 2026-05-09 08:10 | 41.66453 | 25.43978 | 24722 ft | 420 kts | 182° |
| 2026-05-09 08:10 | 41.63523 | 25.43978 | 25125 ft | 422 kts | 183° |
| 2026-05-09 08:10 | 41.60575 | 25.43980 | 25540 ft | 425 kts | 183° |
| 2026-05-09 08:11 | 41.57609 | 25.43980 | 25946 ft | 427 kts | 183° |
| 2026-05-09 08:11 | 41.54626 | 25.43976 | 26355 ft | 430 kts | 183° |
| 2026-05-09 08:11 | 41.51626 | 25.43973 | 26761 ft | 432 kts | 183° |
| 2026-05-09 08:11 | 41.48616 | 25.43972 | 27150 ft | 435 kts | 183° |
| 2026-05-09 08:12 | 41.42531 | 25.43970 | 27950 ft | 439 kts | 183° |
| 2026-05-09 08:12 | 41.39465 | 25.43969 | 28339 ft | 442 kts | 183° |
| 2026-05-09 08:12 | 41.36389 | 25.43971 | 28725 ft | 444 kts | 183° |
| 2026-05-09 08:13 | 41.33290 | 25.43973 | 29104 ft | 446 kts | 183° |
| 2026-05-09 08:13 | 41.30175 | 25.43974 | 29457 ft | 449 kts | 183° |
| 2026-05-09 08:13 | 41.27045 | 25.43975 | 29831 ft | 451 kts | 184° |
| 2026-05-09 08:13 | 41.23908 | 25.43972 | 30179 ft | 452 kts | 184° |
| 2026-05-09 08:14 | 41.20746 | 25.43963 | 30487 ft | 454 kts | 184° |
| 2026-05-09 08:14 | 41.17582 | 25.43957 | 30779 ft | 456 kts | 183° |
| 2026-05-09 08:14 | 41.14397 | 25.43958 | 31071 ft | 458 kts | 183° |
| 2026-05-09 08:14 | 41.11206 | 25.43959 | 31361 ft | 460 kts | 183° |
| 2026-05-09 08:15 | 41.08010 | 25.43958 | 31762 ft | 459 kts | 183° |
| 2026-05-09 08:15 | 41.04821 | 25.43959 | 32181 ft | 457 kts | 183° |
| 2026-05-09 08:15 | 41.01640 | 25.43959 | 32580 ft | 457 kts | 183° |
| 2026-05-09 08:15 | 40.98463 | 25.43959 | 32985 ft | 456 kts | 183° |
| 2026-05-09 08:16 | 40.95299 | 25.43959 | 33396 ft | 455 kts | 183° |
| 2026-05-09 08:16 | 40.92134 | 25.43956 | 33802 ft | 454 kts | 183° |
| 2026-05-09 08:16 | 40.88932 | 25.43953 | 34213 ft | 453 kts | 182° |
| 2026-05-09 08:16 | 40.85786 | 25.43952 | 34613 ft | 452 kts | 183° |
| 2026-05-09 08:17 | 40.82639 | 25.43954 | 35024 ft | 452 kts | 183° |
| 2026-05-09 08:17 | 40.79496 | 25.44124 | 35403 ft | 454 kts | 176° |
| 2026-05-09 08:17 | 40.76387 | 25.44911 | 35764 ft | 457 kts | 167° |
| 2026-05-09 08:17 | 40.73319 | 25.46043 | 36122 ft | 456 kts | 167° |
| 2026-05-09 08:18 | 40.70273 | 25.47167 | 36424 ft | 456 kts | 167° |
| 2026-05-09 08:18 | 40.67216 | 25.48289 | 36719 ft | 456 kts | 167° |
| 2026-05-09 08:18 | 40.64157 | 25.49409 | 36977 ft | 456 kts | 167° |
| 2026-05-09 08:18 | 40.61097 | 25.50526 | 37059 ft | 456 kts | 168° |
| 2026-05-09 08:19 | 40.54999 | 25.52751 | 37057 ft | 455 kts | 168° |
| 2026-05-09 08:19 | 40.48901 | 25.54970 | 37050 ft | 455 kts | 168° |
| 2026-05-09 08:20 | 40.42793 | 25.57186 | 37058 ft | 455 kts | 168° |
| 2026-05-09 08:20 | 40.36691 | 25.59409 | 37059 ft | 455 kts | 168° |
| 2026-05-09 08:21 | 40.30587 | 25.61620 | 37063 ft | 455 kts | 168° |
| 2026-05-09 08:21 | 40.24467 | 25.63829 | 37049 ft | 456 kts | 168° |
| 2026-05-09 08:22 | 40.18361 | 25.66031 | 37051 ft | 456 kts | 168° |
| 2026-05-09 08:22 | 40.12251 | 25.68227 | 37060 ft | 456 kts | 168° |
| 2026-05-09 08:23 | 40.06143 | 25.70421 | 37063 ft | 455 kts | 168° |
| 2026-05-09 08:23 | 40.00031 | 25.72617 | 37050 ft | 456 kts | 169° |
| 2026-05-09 08:24 | 39.93919 | 25.74817 | 37055 ft | 456 kts | 169° |
| 2026-05-09 08:24 | 39.87800 | 25.77006 | 37059 ft | 456 kts | 169° |
| 2026-05-09 08:25 | 39.81683 | 25.79185 | 37059 ft | 456 kts | 169° |
| 2026-05-09 08:25 | 39.75524 | 25.81368 | 37061 ft | 456 kts | 169° |
| 2026-05-09 08:26 | 39.69411 | 25.83538 | 37058 ft | 456 kts | 169° |
| 2026-05-09 08:26 | 39.63296 | 25.85719 | 37061 ft | 456 kts | 169° |
| 2026-05-09 08:27 | 39.57166 | 25.87899 | 37043 ft | 457 kts | 169° |
| 2026-05-09 08:27 | 39.51032 | 25.90065 | 37048 ft | 457 kts | 169° |
| 2026-05-09 08:28 | 39.44897 | 25.92231 | 37059 ft | 457 kts | 169° |
| 2026-05-09 08:28 | 39.38752 | 25.94397 | 37043 ft | 458 kts | 170° |
| 2026-05-09 08:29 | 39.32606 | 25.96550 | 37043 ft | 458 kts | 170° |
| 2026-05-09 08:29 | 39.26449 | 25.98718 | 37051 ft | 459 kts | 170° |
| 2026-05-09 08:30 | 39.20281 | 26.00882 | 37055 ft | 459 kts | 170° |
| 2026-05-09 08:30 | 39.14112 | 26.03038 | 37048 ft | 460 kts | 171° |
| 2026-05-09 08:31 | 39.07930 | 26.05192 | 37050 ft | 460 kts | 171° |
| 2026-05-09 08:31 | 39.01741 | 26.07342 | 37055 ft | 461 kts | 171° |
| 2026-05-09 08:32 | 38.95507 | 26.09511 | 36901 ft | 460 kts | 171° |
| 2026-05-09 08:32 | 38.89316 | 26.11667 | 35699 ft | 462 kts | 172° |
| 2026-05-09 08:33 | 38.86209 | 26.12749 | 35105 ft | 463 kts | 172° |
| 2026-05-09 08:33 | 38.83100 | 26.13831 | 34504 ft | 463 kts | 172° |
| 2026-05-09 08:33 | 38.79996 | 26.14909 | 33867 ft | 463 kts | 172° |
| 2026-05-09 08:33 | 38.76883 | 26.15986 | 33129 ft | 463 kts | 172° |
| 2026-05-09 08:34 | 38.73765 | 26.17061 | 32358 ft | 464 kts | 171° |
| 2026-05-09 08:34 | 38.70647 | 26.18134 | 31572 ft | 466 kts | 171° |
| 2026-05-09 08:34 | 38.67514 | 26.19208 | 31106 ft | 468 kts | 171° |
| 2026-05-09 08:34 | 38.65421 | 26.19925 | 30596 ft | 470 kts | 171° |
| 2026-05-09 08:35 | 38.62268 | 26.21006 | 29903 ft | 471 kts | 170° |
| 2026-05-09 08:35 | 38.59100 | 26.22094 | 29154 ft | 472 kts | 170° |
| 2026-05-09 08:35 | 38.55920 | 26.23186 | 28424 ft | 474 kts | 170° |
| 2026-05-09 08:35 | 38.52735 | 26.24279 | 27714 ft | 475 kts | 170° |
| 2026-05-09 08:36 | 38.49535 | 26.25379 | 27011 ft | 477 kts | 170° |
| 2026-05-09 08:36 | 38.46319 | 26.26484 | 26301 ft | 480 kts | 170° |
| 2026-05-09 08:36 | 38.43083 | 26.27594 | 25645 ft | 483 kts | 170° |
| 2026-05-09 08:36 | 38.39832 | 26.28707 | 24994 ft | 484 kts | 170° |
| 2026-05-09 08:37 | 38.36571 | 26.29824 | 24370 ft | 486 kts | 170° |
| 2026-05-09 08:37 | 38.33259 | 26.30961 | 23745 ft | 487 kts | 170° |
| 2026-05-09 08:37 | 38.29989 | 26.32081 | 23035 ft | 488 kts | 170° |
| 2026-05-09 08:37 | 38.26701 | 26.33203 | 22320 ft | 490 kts | 170° |
| 2026-05-09 08:38 | 38.23414 | 26.34329 | 21602 ft | 489 kts | 169° |
| 2026-05-09 08:38 | 38.20250 | 26.35831 | 20922 ft | 480 kts | 162° |
| 2026-05-09 08:38 | 38.17190 | 26.37425 | 20260 ft | 472 kts | 162° |
| 2026-05-09 08:38 | 38.14120 | 26.39016 | 19618 ft | 477 kts | 162° |
| 2026-05-09 08:39 | 38.11067 | 26.40594 | 18982 ft | 468 kts | 162° |
| 2026-05-09 08:39 | 38.08087 | 26.42133 | 18363 ft | 458 kts | 162° |
| 2026-05-09 08:39 | 38.05167 | 26.43641 | 17654 ft | 448 kts | 162° |
| 2026-05-09 08:39 | 38.02308 | 26.45116 | 16963 ft | 439 kts | 162° |
| 2026-05-09 08:40 | 37.99502 | 26.46559 | 16262 ft | 431 kts | 162° |
| 2026-05-09 08:40 | 37.96748 | 26.47975 | 15592 ft | 422 kts | 162° |
| 2026-05-09 08:40 | 37.94073 | 26.49353 | 14942 ft | 410 kts | 162° |
| 2026-05-09 08:40 | 37.91465 | 26.50697 | 14309 ft | 399 kts | 162° |
| 2026-05-09 08:41 | 37.88926 | 26.52005 | 13655 ft | 388 kts | 162° |
| 2026-05-09 08:41 | 37.86465 | 26.53273 | 12952 ft | 376 kts | 162° |
| 2026-05-09 08:41 | 37.84080 | 26.54501 | 12261 ft | 362 kts | 162° |
| 2026-05-09 08:41 | 37.81786 | 26.55680 | 11599 ft | 352 kts | 163° |
| 2026-05-09 08:42 | 37.79546 | 26.56826 | 10929 ft | 343 kts | 163° |
| 2026-05-09 08:42 | 37.77363 | 26.57940 | 10287 ft | 335 kts | 163° |
| 2026-05-09 08:42 | 37.75237 | 26.59027 | 9829 ft | 323 kts | 163° |
| 2026-05-09 08:42 | 37.73189 | 26.60075 | 9392 ft | 312 kts | 163° |
| 2026-05-09 08:43 | 37.71220 | 26.61081 | 9126 ft | 297 kts | 163° |
| 2026-05-09 08:43 | 37.69358 | 26.62036 | 8946 ft | 281 kts | 163° |
| 2026-05-09 08:43 | 37.67572 | 26.62948 | 8567 ft | 274 kts | 163° |
| 2026-05-09 08:43 | 37.65819 | 26.63837 | 8191 ft | 269 kts | 163° |
| 2026-05-09 08:44 | 37.64098 | 26.64708 | 7824 ft | 264 kts | 163° |
| 2026-05-09 08:44 | 37.62413 | 26.65563 | 7459 ft | 258 kts | 163° |
| 2026-05-09 08:44 | 37.60766 | 26.66400 | 7096 ft | 252 kts | 163° |
| 2026-05-09 08:44 | 37.59157 | 26.67218 | 6739 ft | 246 kts | 163° |
| 2026-05-09 08:45 | 37.57587 | 26.68016 | 6381 ft | 240 kts | 163° |
| 2026-05-09 08:45 | 37.56045 | 26.68801 | 5997 ft | 232 kts | 162° |
| 2026-05-09 08:45 | 37.54566 | 26.69557 | 5624 ft | 226 kts | 162° |
| 2026-05-09 08:45 | 37.53129 | 26.70301 | 5253 ft | 221 kts | 159° |
| 2026-05-09 08:46 | 37.51945 | 26.71512 | 4897 ft | 223 kts | 126° |
| 2026-05-09 08:46 | 37.51442 | 26.73337 | 4624 ft | 220 kts | 91° |
| 2026-05-09 08:46 | 37.51634 | 26.75214 | 4478 ft | 214 kts | 78° |
| 2026-05-09 08:46 | 37.51911 | 26.77046 | 4292 ft | 213 kts | 78° |
| 2026-05-09 08:47 | 37.52183 | 26.78871 | 4041 ft | 211 kts | 78° |
| 2026-05-09 08:47 | 37.52453 | 26.80691 | 3791 ft | 211 kts | 78° |
| 2026-05-09 08:47 | 37.52722 | 26.82505 | 3546 ft | 210 kts | 78° |
| 2026-05-09 08:47 | 37.52989 | 26.84307 | 3303 ft | 208 kts | 78° |
| 2026-05-09 08:48 | 37.53254 | 26.86091 | 3066 ft | 206 kts | 78° |
| 2026-05-09 08:48 | 37.53654 | 26.87772 | 2826 ft | 197 kts | 58° |
| 2026-05-09 08:48 | 37.54598 | 26.88952 | 2588 ft | 190 kts | 27° |
| 2026-05-09 08:48 | 37.55860 | 26.89405 | 2352 ft | 193 kts | 2° |
| 2026-05-09 08:49 | 37.57211 | 26.89538 | 2102 ft | 197 kts | 2° |
| 2026-05-09 08:49 | 37.58593 | 26.89676 | 1928 ft | 201 kts | 1° |
| 2026-05-09 08:49 | 37.59987 | 26.89815 | 1802 ft | 201 kts | 3° |
| 2026-05-09 08:49 | 37.61383 | 26.89948 | 1675 ft | 200 kts | 1° |
| 2026-05-09 08:50 | 37.62694 | 26.89547 | 1529 ft | 192 kts | 331° |
| 2026-05-09 08:50 | 37.63825 | 26.88741 | 1399 ft | 181 kts | 329° |
| 2026-05-09 08:50 | 37.64886 | 26.87986 | 1268 ft | 169 kts | 330° |
| 2026-05-09 08:50 | 37.65861 | 26.87294 | 1144 ft | 149 kts | 330° |
| 2026-05-09 08:51 | 37.66736 | 26.86671 | 1024 ft | 142 kts | 330° |
| 2026-05-09 08:51 | 37.67663 | 26.86354 | 857 ft | 141 kts | 11° |
| 2026-05-09 08:51 | 37.68458 | 26.87026 | 551 ft | 137 kts | 52° |
| 2026-05-09 08:51 | 37.68938 | 26.88043 | 432 ft | 137 kts | 71° |
| 2026-05-09 08:52 | 37.69031 | 26.89212 | 207 ft | 129 kts | 94° |
| 2026-05-09 08:52 | 37.68969 | 26.90355 | 42 ft | 129 kts | 95° |
| 2026-05-09 08:52 | 37.68912 | 26.91311 | 29 ft | 71 kts | 94° |
| 2026-05-09 08:52 | 37.68894 | 26.91619 | 29 ft | 21 kts | 93° |
| 2026-05-09 08:53 | 37.68953 | 26.91684 | 29 ft | 12 kts | 340° |
| 2026-05-09 08:53 | 37.68983 | 26.91634 | 29 ft | 1 kts | 282° |
| 2026-05-09 08:53 | 37.68988 | 26.91610 | 29 ft | 4 kts | 282° |
| 2026-05-09 08:53 | 37.68995 | 26.91566 | 29 ft | 6 kts | 282° |
| 2026-05-09 08:54 | 37.69004 | 26.91506 | 29 ft | 8 kts | 281° |
| 2026-05-09 08:54 | 37.69012 | 26.91434 | 29 ft | 8 kts | 305° |
| 2026-05-09 08:54 | 37.69053 | 26.91428 | 29 ft | 0 kts | 5° |